Latest Weather Observations for Swan Hill

IDN60801

Issued at 10:35 pm EDT Friday 28 November 2014 (issued every 30 minutes, with the page automatically refreshed every 10 minutes)

About weather observations | Map of weather stations | Latest weather observations for NSW | Other Formats
Station Details ID: 077094 Name: SWAN HILL AERODROME Lat: -35.38 Lon: 143.54 Height: 71.0 m
Data from the previous 72 hours. | See also: Recent months at Swan Hill
Date/Time
EDT
Temp
°C
App
Temp
°C
Dew
Point
Rel
Hum
%
Delta-T
°C
Wind Press
QNH
hPa
Press
MSL
hPa
Rain
since 9 am
mm
Dir
 
Spd
km/h
Gust
km/h
Spd
kts
Gust
kts
28/10:30pm 22.4 17.9 -3.3 17 10.9 WSW 11 13 6 7 1014.8 - 0.0
28/10:00pm 21.2 17.1 -3.4 19 10.3 W 9 11 5 6 1014.8 - 0.0
28/09:30pm 23.0 19.7 -0.2 21 10.5 W 7 9 4 5 1014.5 - 0.0
28/09:00pm 24.7 20.8 -4.7 14 12.4 W 7 9 4 5 1014.3 1014.1 0.0
28/08:30pm 26.0 21.7 -4.7 13 13.1 W 9 11 5 6 1014.2 - 0.0
28/08:00pm 29.1 25.5 -3.6 11 14.6 W 6 7 3 4 1014.0 - 0.0
28/07:30pm 30.3 25.3 -8.7 7 16.1 WNW 11 17 6 9 1013.9 - 0.0
28/07:00pm 31.0 27.3 -4.2 10 15.8 WNW 6 9 3 5 1013.7 - 0.0
28/06:30pm 31.0 26.5 -7.3 8 16.3 NW 9 13 5 7 1013.6 - 0.0
28/06:00pm 30.8 26.3 -6.7 8 16.1 N 9 19 5 10 1013.7 1013.5 0.0
28/05:30pm 31.5 27.6 -4.9 9 16.2 SSE 7 13 4 7 1014.1 - 0.0
28/05:00pm 30.4 26.6 -0.9 13 14.8 NE 9 17 5 9 1014.3 - 0.0
28/04:30pm 30.6 27.2 -0.8 13 14.9 ENE 7 15 4 8 1014.6 - 0.0
28/04:00pm 30.4 26.8 0.4 14 14.5 SE 9 17 5 9 1015.1 - 0.0
28/03:30pm 29.5 25.6 -1.5 13 14.4 NNE 9 19 5 10 1015.6 - 0.0
28/03:00pm 29.1 25.8 -1.6 13 14.2 ESE 6 15 3 8 1016.0 1016.0 0.0
28/02:30pm 28.9 24.8 -0.4 15 13.8 E 11 17 6 9 1016.6 - 0.0
28/02:00pm 28.2 23.6 1.7 18 12.9 E 15 26 8 14 1017.3 - 0.0
28/01:30pm 27.7 23.5 1.7 18 12.6 ESE 13 20 7 11 1017.8 - 0.0
28/01:00pm 27.1 23.8 4.4 23 11.5 SSE 11 19 6 10 1018.3 - 0.0
28/12:30pm 26.1 22.5 5.1 26 10.7 ESE 13 22 7 12 1018.9 - 0.0
28/12:00pm 24.7 21.3 6.0 30 9.6 SE 13 22 7 12 1019.3 1019.1 0.0
28/11:30am 23.5 20.8 7.2 35 8.5 SE 11 19 6 10 1019.7 - 0.0
28/11:00am 22.4 18.9 7.1 37 7.9 SE 15 24 8 13 1020.0 - 0.0
28/10:30am 20.7 17.5 6.9 40 7.0 SSE 13 22 7 12 1020.2 - 0.0
28/10:00am 19.6 16.1 7.2 44 6.3 SSE 15 22 8 12 1020.4 - 0.0
28/09:30am 18.3 14.8 7.2 48 5.6 SE 15 24 8 13 1020.4 - 0.0
28/09:00am 16.5 12.5 6.8 52 4.8 SSE 17 26 9 14 1020.6 1020.4 0.0
28/08:30am 15.4 11.7 6.3 54 4.4 SE 15 22 8 12 1020.5 - 0.0
28/08:00am 13.9 9.7 5.6 57 3.9 SE 17 22 9 12 1020.3 - 0.0
28/07:30am 12.6 9.0 5.0 60 3.5 SSE 13 19 7 10 1020.2 - 0.0
28/07:00am 10.3 7.2 3.7 63 2.9 SSE 9 13 5 7 1020.1 - 0.0
28/06:30am 8.7 5.5 3.1 68 2.4 SSE 9 11 5 6 1019.8 - 0.0
28/06:00am 9.1 5.5 3.0 65 2.6 SSE 11 15 6 8 1019.5 1019.3 0.0
28/05:30am 9.3 5.7 2.7 63 2.8 SSE 11 15 6 8 1019.4 - 0.0
28/05:00am 10.2 6.7 3.3 62 3.0 SE 11 17 6 9 1019.0 - 0.0
28/04:30am 10.6 7.1 3.3 60 3.2 SE 11 17 6 9 1018.6 - 0.0
28/04:00am 10.9 7.4 3.4 60 3.3 SE 11 17 6 9 1018.6 - 0.0
28/03:30am 11.6 8.1 3.5 57 3.6 SSE 11 15 6 8 1018.7 - 0.0
28/03:00am 12.2 8.3 3.4 55 3.9 SSE 13 19 7 10 1018.6 1018.5 0.0
28/02:30am 12.5 9.5 4.1 56 3.8 SE 9 15 5 8 1019.0 - 0.0
28/02:00am 13.2 9.7 3.4 51 4.4 SE 11 17 6 9 1019.3 - 0.0
28/01:30am 14.1 10.5 3.2 48 4.9 SE 11 15 6 8 1019.5 - 0.0
28/01:00am 15.5 11.5 2.6 42 5.8 SSE 13 20 7 11 1019.7 - 0.0
28/12:30am 16.4 11.9 2.4 39 6.3 SE 15 22 8 12 1019.9 - 0.0
28/12:00am 17.1 13.3 4.1 42 6.1 SSE 13 19 7 10 1020.0 1019.8 0.0
 
Date/Time
EDT
Temp
°C
App
Temp
°C
Dew
Point
Rel
Hum
%
Delta-T
°C
Wind Press
QNH
hPa
Press
MSL
hPa
Rain
since 9 am
mm
Dir
 
Spd
km/h
Gust
km/h
Spd
kts
Gust
kts
27/11:30pm 18.5 14.3 3.9 38 6.9 SE 15 22 8 12 1019.9 - 0.0
27/11:00pm 19.6 15.1 4.1 36 7.4 SE 17 26 9 14 1020.0 - 0.0
27/10:30pm 20.6 16.0 3.6 32 8.1 SE 17 22 9 12 1020.0 - 0.0
27/10:00pm 21.5 16.8 2.9 29 8.8 SE 17 26 9 14 1019.8 - 0.0
27/09:30pm 21.4 17.3 -0.5 23 9.7 SE 11 17 6 9 1019.3 - 0.0
27/09:00pm 22.5 18.4 -0.2 22 10.2 ESE 11 17 6 9 1019.1 1018.9 0.0
27/08:30pm 23.6 20.1 1.0 22 10.5 ESE 9 11 5 6 1018.9 - 0.0
27/08:00pm 25.7 21.8 -1.3 17 12.2 ESE 9 13 5 7 1018.6 - 0.0
27/07:30pm 26.8 22.0 -2.6 14 13.1 ESE 13 22 7 12 1018.5 - 0.0
27/07:00pm 27.6 21.6 -6.2 10 14.2 SSE 17 26 9 14 1018.2 - 0.0
27/06:30pm 27.9 21.4 -8.4 8 14.7 SSE 19 32 10 17 1018.1 - 0.0
27/06:00pm 28.4 22.3 -7.9 9 14.9 SE 17 30 9 16 1018.1 1018.0 0.0
27/05:30pm 28.1 21.3 -9.8 8 15.0 SSE 20 35 11 19 1018.4 - 0.0
27/05:00pm 28.3 21.6 -7.6 9 14.8 SE 20 28 11 15 1018.5 - 0.0
27/04:30pm 28.0 21.4 -9.5 8 14.9 SE 19 30 10 16 1018.7 - 0.0
27/04:00pm 27.5 21.0 -8.5 9 14.5 SSE 19 32 10 17 1019.3 - 0.0
27/03:30pm 27.9 21.3 -9.2 8 14.8 SSE 19 30 10 16 1019.6 - 0.0
27/03:00pm 27.2 21.3 -9.8 8 14.5 S 15 28 8 15 1019.9 1019.7 0.0
27/02:30pm 26.1 19.6 -7.6 10 13.6 S 19 30 10 16 1020.4 - 0.0
27/02:00pm 25.6 19.3 -6.2 12 13.1 SE 19 33 10 18 1020.7 - 0.0
27/01:30pm 24.5 18.4 -3.9 15 12.1 SE 19 28 10 15 1021.1 - 0.0
27/01:00pm 24.0 18.8 -2.8 16 11.6 S 15 26 8 14 1021.6 - 0.0
27/12:30pm 23.5 18.4 -2.2 18 11.2 S 15 26 8 14 1022.2 - 0.0
27/12:00pm 22.0 16.6 -1.7 20 10.3 S 17 26 9 14 1022.4 1022.2 0.0
27/11:30am 20.9 15.7 0.0 24 9.3 S 17 28 9 15 1022.8 - 0.0
27/11:00am 19.6 14.2 1.5 30 8.2 S 19 28 10 15 1023.1 - 0.0
27/10:30am 18.3 13.2 2.9 36 7.1 S 19 28 10 15 1023.3 - 0.0
27/10:00am 17.7 12.7 3.5 38 6.6 SSE 19 26 10 14 1023.6 - 0.0
27/09:30am 16.6 12.1 4.2 43 5.8 SSE 17 24 9 13 1023.8 - 0.0
27/09:00am 15.4 10.6 4.7 49 5.0 SSE 19 26 10 14 1023.8 1023.6 0.0
27/08:30am 14.4 9.1 5.0 53 4.4 SSE 22 30 12 16 1023.6 - 0.0
27/08:00am 13.8 9.0 5.5 57 3.9 SSE 20 32 11 17 1023.3 - 0.0
27/07:30am 13.2 9.1 6.3 63 3.3 SSE 17 26 9 14 1023.1 - 0.0
27/07:00am 12.1 8.2 7.1 71 2.4 SE 17 22 9 12 1023.0 - 0.0
27/06:30am 10.9 8.0 8.0 82 1.4 SSE 13 20 7 11 1022.8 - 0.0
27/06:00am 10.9 8.0 8.0 82 1.4 SSE 13 17 7 9 1022.7 1022.6 0.0
27/05:30am 11.1 8.6 8.2 82 1.4 SSE 11 17 6 9 1022.4 - 0.0
27/05:00am 11.3 8.8 8.2 81 1.5 SE 11 15 6 8 1022.0 - 0.0
27/04:30am 12.0 9.2 8.6 80 1.7 SE 13 19 7 10 1021.8 - 0.0
27/04:00am 12.4 8.9 8.6 77 1.9 SSE 17 24 9 13 1021.7 - 0.0
27/03:30am 12.7 9.2 8.7 76 2.0 SSE 17 24 9 13 1021.6 - 0.0
27/03:00am 13.1 9.6 8.9 75 2.1 SE 17 24 9 13 1021.6 1021.4 0.0
27/02:30am 13.6 10.2 9.1 74 2.3 SE 17 24 9 13 1021.7 - 0.0
27/02:00am 14.3 11.3 9.2 71 2.6 SSE 15 24 8 13 1021.5 - 0.0
27/01:30am 15.2 11.2 8.9 66 3.2 SE 20 33 11 18 1021.6 - 0.0
27/01:00am 16.0 12.2 9.7 66 3.3 SE 20 30 11 16 1021.6 - 0.0
27/12:30am 17.0 13.3 9.5 61 3.9 SSE 19 32 10 17 1021.6 - 0.0
27/12:00am 17.6 13.8 8.9 56 4.5 SSE 19 30 10 16 1021.6 1021.4 0.0
 
Date/Time
EDT
Temp
°C
App
Temp
°C
Dew
Point
Rel
Hum
%
Delta-T
°C
Wind Press
QNH
hPa
Press
MSL
hPa
Rain
since 9 am
mm
Dir
 
Spd
km/h
Gust
km/h
Spd
kts
Gust
kts
26/11:30pm 18.3 14.3 8.2 51 5.2 SSE 19 28 10 15 1021.4 - 0.0
26/11:00pm 19.0 15.6 7.6 47 5.8 SE 15 24 8 13 1021.4 - 0.0
26/10:30pm 19.5 16.1 7.6 46 6.1 SSE 15 24 8 13 1021.0 - 0.0
26/10:00pm 20.3 16.8 7.4 43 6.6 SE 15 24 8 13 1020.6 - 0.0
26/09:30pm 21.4 16.8 6.6 38 7.5 SE 20 28 11 15 1020.2 - 0.0
26/09:00pm 21.9 18.2 4.6 32 8.5 S 13 17 7 9 1019.7 1019.5 0.0
26/08:30pm 22.7 19.4 4.7 31 8.9 S 11 17 6 9 1019.3 - 0.0
26/08:00pm 24.1 20.0 4.3 27 9.8 S 15 22 8 12 1019.1 - 0.0
26/07:30pm 25.0 20.7 3.4 24 10.6 S 15 28 8 15 1018.9 - 0.0
26/07:00pm 25.2 20.4 2.7 23 10.9 S 17 24 9 13 1018.7 - 0.0
26/06:30pm 25.3 19.7 1.5 21 11.3 S 20 28 11 15 1018.4 - 0.0
26/06:00pm 25.5 20.1 1.2 20 11.5 S 19 32 10 17 1018.3 1018.2 0.0
26/05:30pm 25.3 20.3 1.5 21 11.3 SSW 17 30 9 16 1018.6 - 0.0
26/05:00pm 25.4 19.9 0.9 20 11.5 SSW 19 32 10 17 1018.7 - 0.0
26/04:30pm 25.8 20.2 1.0 20 11.7 SSW 20 32 11 17 1018.9 - 0.0
26/04:00pm 24.6 18.9 -0.9 18 11.5 SSW 19 43 10 23 1019.3 - 0.0
26/03:30pm 24.8 19.2 0.0 19 11.4 SSW 19 30 10 16 1019.6 - 0.0
26/03:00pm 23.4 17.6 0.1 21 10.6 S 20 30 11 16 1019.9 1019.7 0.0
26/02:30pm 22.8 18.6 1.6 24 9.9 W 13 28 7 15 1020.2 - 0.0
26/02:00pm 23.6 18.0 1.3 23 10.4 SW 20 32 11 17 1020.5 - 0.0
26/01:30pm 22.4 17.0 1.1 24 9.8 W 19 28 10 15 1020.8 - 0.0
26/01:00pm 21.8 16.3 0.3 24 9.7 SW 19 32 10 17 1021.2 - 0.0
26/12:30pm 20.8 15.5 2.0 28 8.7 WSW 19 32 10 17 1021.7 - 0.0
26/12:00pm 21.0 16.5 2.3 29 8.7 WSW 15 22 8 12 1021.8 1021.6 0.0
26/11:30am 19.8 16.5 4.4 36 7.4 WSW 11 17 6 9 1022.1 - 0.0
26/11:00am 19.5 15.5 5.1 38 7.0 SSW 15 24 8 13 1022.2 - 0.0
26/10:30am 18.6 15.0 5.2 41 6.5 S 13 24 7 13 1022.2 - 0.0
26/10:00am 17.7 13.4 5.2 43 6.0 S 17 22 9 12 1022.2 - 0.0
26/09:30am 16.9 13.0 5.2 46 5.6 S 15 28 8 15 1022.2 - 0.0
26/09:00am 16.3 12.1 5.7 49 5.1 SSE 17 24 9 13 1022.0 1021.8 0.0
26/08:30am 15.3 11.5 5.9 53 4.5 SE 15 24 8 13 1021.8 - 0.0
26/08:00am 14.3 11.0 6.4 59 3.8 SSE 13 19 7 10 1021.6 - 0.0
26/07:30am 13.0 10.2 6.8 66 3.0 SSE 11 19 6 10 1021.3 - 0.0
26/07:00am 11.6 9.2 6.8 72 2.3 SSE 9 13 5 7 1021.2 - 0.0
26/06:30am 10.4 7.9 6.6 77 1.8 SSE 9 13 5 7 1020.9 - 0.0
26/06:00am 10.7 7.5 6.7 76 1.9 SSE 13 15 7 8 1020.7 1020.5 0.0
26/05:30am 11.0 8.1 6.5 74 2.1 S 11 17 6 9 1020.4 - 0.0
26/05:00am 11.2 7.9 6.5 73 2.2 S 13 20 7 11 1020.1 - 0.0
26/04:30am 11.4 8.1 6.3 71 2.4 S 13 17 7 9 1020.1 - 0.0
26/04:00am 11.5 8.1 5.7 67 2.7 S 13 17 7 9 1019.9 - 0.0
26/03:30am 11.3 8.4 4.9 65 2.9 S 9 13 5 7 1019.9 - 0.0
26/03:00am 12.2 8.9 4.8 60 3.4 SSW 11 15 6 8 1019.8 1019.6 0.0
26/02:30am 13.4 9.7 4.5 55 4.1 SSW 13 20 7 11 1019.8 - 0.0
26/02:00am 14.0 9.9 4.2 51 4.5 SSW 15 22 8 12 1020.0 - 0.0
26/01:30am 14.5 9.9 3.8 48 4.9 SSW 17 24 9 13 1020.2 - 0.0
26/01:00am 15.0 10.3 3.3 45 5.3 SSW 17 24 9 13 1020.3 - 0.0
26/12:30am 15.2 10.5 3.3 45 5.4 SW 17 20 9 11 1020.4 - 0.0
26/12:00am 15.5 11.5 2.9 42 5.7 SSW 13 17 7 9 1020.4 1020.2 0.0
 
Date/Time
EDT
Temp
°C
App
Temp
°C
Dew
Point
Rel
Hum
%
Delta-T
°C
Wind Press
QNH
hPa
Press
MSL
hPa
Rain
since 9 am
mm
Dir
 
Spd
km/h
Gust
km/h
Spd
kts
Gust
kts
25/11:30pm 16.1 12.1 2.6 40 6.1 SSW 13 17 7 9 1020.4 - 0.0
25/11:00pm 16.6 13.3 2.7 39 6.3 SSW 9 15 5 8 1020.4 - 0.0

Other Formats:

Comma delimited format used in spreadsheet applications
http://www.bom.gov.au/fwo/IDN60801/IDN60801.94843.axf

JavaScript Object Notation format (JSON) in row-major order
http://www.bom.gov.au/fwo/IDN60801/IDN60801.94843.json